createdAt,value
2023-03-24T00:00:24.201Z,96117.69
2023-03-24T00:02:51.981Z,96113.59
2023-03-24T00:05:21.816Z,96127.06
2023-03-24T00:07:54.650Z,96135.06
2023-03-24T00:10:22.855Z,96138.78
2023-03-24T00:12:50.709Z,96172.47
2023-03-24T00:15:21.555Z,96171.03
2023-03-24T00:17:52.849Z,96169.69
2023-03-24T00:20:22.361Z,96182.16
2023-03-24T00:22:56.997Z,96186.25
2023-03-24T00:25:33.915Z,96201.09
2023-03-24T00:28:01.492Z,96214.03
2023-03-24T00:30:28.236Z,96212.00
2023-03-24T00:32:55.393Z,96228.53
2023-03-24T00:35:22.463Z,96227.94
2023-03-24T00:37:52.187Z,96234.03
2023-03-24T00:40:21.034Z,96236.19
2023-03-24T00:42:48.979Z,96224.25
2023-03-24T00:45:21.130Z,96259.28
2023-03-24T00:47:50.105Z,96264.69
2023-03-24T00:50:20.690Z,96256.59
2023-03-24T00:52:49.284Z,96307.78
2023-03-24T00:55:16.895Z,96309.34
2023-03-24T00:57:54.213Z,96298.19
2023-03-24T01:00:26.707Z,96333.31
2023-03-24T01:02:56.787Z,96339.66
2023-03-24T01:05:26.052Z,96370.19
2023-03-24T01:07:52.805Z,96355.75
2023-03-24T01:10:26.224Z,96343.38
2023-03-24T01:12:56.339Z,96346.72
2023-03-24T01:15:26.579Z,96335.31
2023-03-24T01:17:54.386Z,96351.91
2023-03-24T01:20:23.304Z,96350.06
2023-03-24T01:22:50.761Z,96346.94
2023-03-24T01:25:21.352Z,96354.19
2023-03-24T01:27:49.396Z,96349.78
2023-03-24T01:30:18.363Z,96344.66
2023-03-24T01:32:46.340Z,96334.84
2023-03-24T01:35:13.064Z,96315.47
2023-03-24T01:37:40.354Z,96318.88
2023-03-24T01:40:11.917Z,96312.59
2023-03-24T01:42:39.992Z,96315.72
2023-03-24T01:45:35.618Z,96315.03
2023-03-24T01:48:03.878Z,96315.03
2023-03-24T01:50:32.360Z,96308.94
2023-03-24T01:53:01.298Z,96304.78
2023-03-24T01:55:29.743Z,96297.03
2023-03-24T01:58:00.438Z,96303.28
2023-03-24T02:00:28.608Z,96285.84
2023-03-24T02:03:01.103Z,96286.00
2023-03-24T02:05:38.213Z,96269.16
2023-03-24T02:08:11.606Z,96259.53
2023-03-24T02:10:39.281Z,96260.28
2023-03-24T02:13:07.647Z,96267.00
2023-03-24T02:15:48.524Z,96268.78
2023-03-24T02:18:25.801Z,96274.38
2023-03-24T02:21:19.283Z,96263.34
2023-03-24T02:24:08.798Z,96269.69
2023-03-24T02:26:53.470Z,96279.84
2023-03-24T02:29:35.257Z,96271.75
2023-03-24T02:32:37.200Z,96281.75
2023-03-24T02:35:12.810Z,96270.56
2023-03-24T02:38:05.165Z,96268.72
2023-03-24T02:40:54.381Z,96255.00
2023-03-24T02:43:52.841Z,96252.97
2023-03-24T02:46:35.960Z,96247.63
2023-03-24T02:49:27.749Z,96243.00
2023-03-24T02:52:13.117Z,96250.00
2023-03-24T02:55:13.233Z,96244.19
2023-03-24T02:58:05.565Z,96256.31
2023-03-24T03:00:41.260Z,96239.81
2023-03-24T03:03:28.055Z,96245.00
2023-03-24T03:05:58.790Z,96254.22
2023-03-24T03:08:30.535Z,96245.63
2023-03-24T03:10:59.364Z,96235.84
2023-03-24T03:13:40.853Z,96217.66
2023-03-24T03:16:17.851Z,96204.88
2023-03-24T03:18:52.150Z,96207.59
2023-03-24T03:21:24.684Z,96190.06
2023-03-24T03:24:12.736Z,96186.94
2023-03-24T03:26:41.752Z,96180.59
2023-03-24T03:29:35.322Z,96165.41
2023-03-24T03:32:08.218Z,96158.94
2023-03-24T03:34:40.134Z,96146.88
2023-03-24T03:37:10.024Z,96149.84
2023-03-24T03:39:51.944Z,96134.00
2023-03-24T03:42:19.458Z,96130.72
2023-03-24T03:44:46.829Z,96108.13
2023-03-24T03:47:15.137Z,96096.97
2023-03-24T03:49:46.242Z,96107.91
2023-03-24T03:52:15.545Z,96097.44
2023-03-24T03:54:44.200Z,96104.50
2023-03-24T03:57:14.765Z,96096.06
2023-03-24T03:59:42.888Z,96086.38
2023-03-24T04:02:40.367Z,96072.72
2023-03-24T04:05:15.967Z,96063.28
2023-03-24T04:08:16.284Z,96064.78
2023-03-24T04:11:18.430Z,96046.59
2023-03-24T04:14:21.938Z,96040.84
2023-03-24T04:16:57.506Z,96024.28
2023-03-24T04:19:30.227Z,96023.47
2023-03-24T04:22:04.705Z,96034.31
2023-03-24T04:24:37.444Z,96017.13
2023-03-24T04:27:30.117Z,96010.47
2023-03-24T04:30:23.416Z,95992.78
2023-03-24T04:32:58.492Z,96003.53
2023-03-24T04:35:36.615Z,95986.56
2023-03-24T04:38:07.254Z,95988.69
2023-03-24T04:40:36.789Z,95992.63
2023-03-24T04:43:07.420Z,95977.47
2023-03-24T04:45:37.463Z,95983.25
2023-03-24T04:48:08.856Z,95976.63
2023-03-24T04:50:44.229Z,95972.31
2023-03-24T04:53:10.957Z,95984.31
2023-03-24T04:55:59.277Z,95976.75
2023-03-24T04:58:26.024Z,95978.59
2023-03-24T05:00:53.323Z,95977.03
2023-03-24T05:03:20.101Z,95977.69
2023-03-24T05:05:49.049Z,95996.00
2023-03-24T05:08:18.022Z,96003.19
2023-03-24T05:10:45.004Z,96022.53
2023-03-24T05:13:13.855Z,96030.97
2023-03-24T05:15:40.622Z,96032.84
2023-03-24T05:18:07.688Z,96063.34
2023-03-24T05:20:34.393Z,96068.94
2023-03-24T05:23:01.958Z,96091.41
2023-03-24T05:25:28.571Z,96123.66
2023-03-24T05:27:55.539Z,96116.19
2023-03-24T05:30:23.721Z,96140.03
2023-03-24T05:32:50.813Z,96151.22
2023-03-24T05:35:17.679Z,96157.81
2023-03-24T05:37:44.364Z,96162.59
2023-03-24T05:40:11.557Z,96151.72
2023-03-24T05:42:38.182Z,96170.09
2023-03-24T05:45:05.856Z,96176.03
2023-03-24T05:47:32.523Z,96160.16
2023-03-24T05:49:59.162Z,96179.09
2023-03-24T05:52:27.397Z,96162.16
2023-03-24T05:54:55.504Z,96162.28
2023-03-24T05:57:22.255Z,96157.63
2023-03-24T05:59:50.048Z,96165.94
2023-03-24T06:02:16.705Z,96171.78
2023-03-24T06:04:48.939Z,96187.59
2023-03-24T06:07:16.586Z,96203.59
2023-03-24T06:09:47.055Z,96219.53
2023-03-24T06:12:14.653Z,96210.63
2023-03-24T06:14:41.253Z,96239.38
2023-03-24T06:17:08.260Z,96238.09
2023-03-24T06:19:38.539Z,96230.78
2023-03-24T06:22:07.584Z,96247.38
2023-03-24T06:24:34.553Z,96247.53
2023-03-24T06:27:02.505Z,96252.63
2023-03-24T06:29:31.157Z,96246.31
2023-03-24T06:31:58.066Z,96239.28
2023-03-24T06:34:29.385Z,96251.69
2023-03-24T06:36:58.020Z,96249.16
2023-03-24T06:39:25.135Z,96243.22
2023-03-24T06:41:52.145Z,96278.75
2023-03-24T06:44:20.132Z,96269.88
2023-03-24T06:46:47.303Z,96310.19
2023-03-24T06:49:14.020Z,96327.13
2023-03-24T06:51:40.801Z,96318.19
2023-03-24T06:54:07.435Z,96337.06
2023-03-24T06:56:34.889Z,96332.25
2023-03-24T06:59:01.633Z,96341.25
2023-03-24T07:01:28.394Z,96344.97
2023-03-24T07:03:55.343Z,96336.81
2023-03-24T07:06:22.966Z,96360.56
2023-03-24T07:08:50.257Z,96362.16
2023-03-24T07:11:18.201Z,96368.47
2023-03-24T07:13:44.904Z,96377.47
2023-03-24T07:16:11.578Z,96373.13
2023-03-24T07:18:38.249Z,96380.38
2023-03-24T07:21:05.272Z,96386.84
2023-03-24T07:23:33.110Z,96375.22
2023-03-24T07:26:02.051Z,96399.88
2023-03-24T07:28:30.023Z,96395.16
2023-03-24T07:30:56.900Z,96410.91
2023-03-24T07:33:26.136Z,96403.75
2023-03-24T07:35:57.404Z,96396.34
2023-03-24T07:38:25.616Z,96393.75
2023-03-24T07:40:52.955Z,96384.88
2023-03-24T07:43:19.613Z,96387.47
2023-03-24T07:45:46.576Z,96392.44
2023-03-24T07:48:13.585Z,96393.28
2023-03-24T07:50:41.696Z,96411.13
2023-03-24T07:53:11.397Z,96406.78
2023-03-24T07:55:41.492Z,96422.31
2023-03-24T07:58:09.235Z,96425.31
2023-03-24T08:00:37.572Z,96423.25
2023-03-24T08:03:04.567Z,96429.88
2023-03-24T08:05:31.330Z,96426.81
2023-03-24T08:07:58.627Z,96445.66
2023-03-24T08:10:29.245Z,96437.50
2023-03-24T08:12:57.397Z,96432.38
2023-03-24T08:15:26.587Z,96449.81
2023-03-24T08:17:54.816Z,96463.03
2023-03-24T08:20:21.517Z,96453.16
2023-03-24T08:22:55.568Z,96454.59
2023-03-24T08:25:25.230Z,96455.75
2023-03-24T08:27:52.996Z,96488.00
2023-03-24T08:30:22.354Z,96492.44
2023-03-24T08:33:08.979Z,96508.34
2023-03-24T08:35:39.901Z,96485.97
2023-03-24T08:38:10.392Z,96483.16
2023-03-24T08:40:40.055Z,96497.63
2023-03-24T08:43:11.145Z,96510.28
2023-03-24T08:45:38.265Z,96536.41
2023-03-24T08:48:07.548Z,96551.22
2023-03-24T08:50:38.439Z,96540.47
2023-03-24T08:53:05.766Z,96568.13
2023-03-24T08:55:34.273Z,96557.59
2023-03-24T08:58:01.686Z,96566.28
2023-03-24T09:00:29.167Z,96560.72
2023-03-24T09:02:56.731Z,96568.81
2023-03-24T09:05:36.619Z,96569.91
2023-03-24T09:08:11.660Z,96564.72
2023-03-24T09:10:39.660Z,96576.75
2023-03-24T09:13:06.379Z,96587.38
2023-03-24T09:15:33.876Z,96580.19
2023-03-24T09:18:00.981Z,96594.72
2023-03-24T09:20:28.894Z,96590.19
2023-03-24T09:22:57.650Z,96588.09
2023-03-24T09:25:25.417Z,96579.34
2023-03-24T09:27:53.900Z,96575.38
2023-03-24T09:30:20.781Z,96581.44
2023-03-24T09:32:48.791Z,96578.19
2023-03-24T09:35:17.265Z,96569.13
2023-03-24T09:37:44.129Z,96559.59
2023-03-24T09:40:20.631Z,96543.66
2023-03-24T09:42:54.505Z,96550.56
2023-03-24T09:45:23.991Z,96550.63
2023-03-24T09:47:58.647Z,96546.94
2023-03-24T09:50:30.546Z,96544.75
2023-03-24T09:53:04.776Z,96547.75
2023-03-24T09:55:31.421Z,96549.94
2023-03-24T09:58:04.945Z,96549.63
2023-03-24T10:00:34.551Z,96548.50
2023-03-24T10:03:14.869Z,96538.69
2023-03-24T10:05:53.621Z,96539.34
2023-03-24T10:08:42.248Z,96542.03
2023-03-24T10:11:29.093Z,96528.44
2023-03-24T10:14:04.450Z,96521.25
2023-03-24T10:16:55.736Z,96511.47
2023-03-24T10:19:55.522Z,96515.22
2023-03-24T10:22:35.577Z,96502.53
2023-03-24T10:25:16.331Z,96501.81
2023-03-24T10:28:01.239Z,96488.16
2023-03-24T10:30:34.425Z,96481.69
2023-03-24T10:33:01.197Z,96474.06
2023-03-24T10:35:38.471Z,96458.16
2023-03-24T10:38:23.596Z,96471.53
2023-03-24T10:40:50.891Z,96465.44
2023-03-24T10:43:20.013Z,96466.56
2023-03-24T10:45:55.421Z,96455.97
2023-03-24T10:49:12.766Z,96461.28
2023-03-24T10:51:46.645Z,96455.97
2023-03-24T10:54:22.828Z,96451.41
2023-03-24T10:57:02.016Z,96448.78
2023-03-24T10:59:33.197Z,96437.78
2023-03-24T11:02:01.336Z,96428.78
2023-03-24T11:04:30.876Z,96406.16
2023-03-24T11:07:22.754Z,96396.22
2023-03-24T11:10:07.477Z,96382.16
2023-03-24T11:12:40.697Z,96353.66
2023-03-24T11:15:22.447Z,96347.59
2023-03-24T11:17:58.112Z,96337.50
2023-03-24T11:20:41.937Z,96334.97
2023-03-24T11:23:12.011Z,96308.50
2023-03-24T11:25:41.579Z,96307.63
2023-03-24T11:28:15.875Z,96306.88
2023-03-24T11:30:49.799Z,96293.00
2023-03-24T11:33:19.365Z,96293.16
2023-03-24T11:35:50.361Z,96291.53
2023-03-24T11:38:31.525Z,96290.47
2023-03-24T11:41:05.009Z,96292.03
2023-03-24T11:43:32.646Z,96289.22
2023-03-24T11:46:01.534Z,96278.59
2023-03-24T11:49:03.812Z,96290.72
2023-03-24T11:51:36.438Z,96269.34
2023-03-24T11:54:13.348Z,96267.16
2023-03-24T11:56:46.254Z,96263.47
2023-03-24T11:59:34.361Z,96248.75
2023-03-24T12:02:12.845Z,96239.50
2023-03-24T12:05:22.826Z,96239.53
2023-03-24T12:08:27.933Z,96229.09
2023-03-24T12:10:54.541Z,96226.41
2023-03-24T12:13:36.734Z,96220.94
2023-03-24T12:16:06.421Z,96208.75
2023-03-24T12:18:41.737Z,96199.00
2023-03-24T12:21:38.826Z,96197.03
2023-03-24T12:24:44.275Z,96185.75
2023-03-24T12:27:39.457Z,96198.88
2023-03-24T12:30:25.805Z,96189.03
2023-03-24T12:32:58.345Z,96215.53
2023-03-24T12:35:43.209Z,96199.72
2023-03-24T12:38:24.789Z,96200.31
2023-03-24T12:41:14.041Z,96178.72
2023-03-24T12:43:52.661Z,96175.56
2023-03-24T12:46:47.906Z,96160.47
2023-03-24T12:49:18.530Z,96147.81
2023-03-24T12:52:16.898Z,96139.16
2023-03-24T12:55:04.882Z,96103.50
2023-03-24T12:57:42.249Z,96075.66
2023-03-24T13:00:20.316Z,96057.94
2023-03-24T13:02:58.457Z,96049.56
2023-03-24T13:05:41.562Z,96049.53
2023-03-24T13:08:29.766Z,96041.75
2023-03-24T13:11:02.532Z,96023.19
2023-03-24T13:13:34.963Z,96012.38
2023-03-24T13:16:06.272Z,96005.44
2023-03-24T13:18:51.207Z,96014.06
2023-03-24T13:21:19.041Z,96020.13
2023-03-24T13:24:14.986Z,96007.69
2023-03-24T13:26:52.428Z,95994.13
2023-03-24T13:29:21.913Z,95981.00
2023-03-24T13:31:57.394Z,95979.44
2023-03-24T13:34:32.880Z,95965.94
2023-03-24T13:37:20.529Z,95973.03
2023-03-24T13:39:47.443Z,95969.78
2023-03-24T13:43:01.016Z,95947.34
2023-03-24T13:45:34.723Z,95938.81
2023-03-24T13:48:15.085Z,95933.53
2023-03-24T13:51:12.959Z,95946.47
2023-03-24T13:53:52.988Z,95910.88
2023-03-24T13:56:27.664Z,95866.94
2023-03-24T13:59:03.520Z,95835.44
2023-03-24T14:01:40.187Z,95835.41
2023-03-24T14:04:19.218Z,95789.84
2023-03-24T14:06:54.413Z,95747.34
2023-03-24T14:09:31.248Z,95712.66
2023-03-24T14:12:03.791Z,95707.31
2023-03-24T14:14:35.316Z,95668.69
2023-03-24T14:17:04.937Z,95647.16
2023-03-24T14:19:33.521Z,95630.97
2023-03-24T14:22:21.018Z,95589.28
2023-03-24T14:24:59.756Z,95580.13
2023-03-24T14:27:42.313Z,95549.97
2023-03-24T14:30:21.724Z,95535.00
2023-03-24T14:32:56.596Z,95515.28
2023-03-24T14:35:39.345Z,95480.56
2023-03-24T14:38:28.580Z,95443.59
2023-03-24T14:41:07.549Z,95430.88
2023-03-24T14:43:41.240Z,95412.34
2023-03-24T14:46:21.450Z,95387.34
2023-03-24T14:48:56.400Z,95367.28
2023-03-24T14:51:40.677Z,95343.00
2023-03-24T14:54:30.427Z,95337.63
2023-03-24T14:56:59.636Z,95308.72
2023-03-24T14:59:49.010Z,95287.16
2023-03-24T15:02:31.832Z,95281.00
2023-03-24T15:05:21.913Z,95284.84
2023-03-24T15:08:12.665Z,95279.09
2023-03-24T15:10:51.009Z,95234.81
2023-03-24T15:13:36.277Z,95168.59
2023-03-24T15:16:15.796Z,95143.16
2023-03-24T15:19:02.094Z,95124.72
2023-03-24T15:21:36.953Z,95097.34
2023-03-24T15:24:24.720Z,95073.53
2023-03-24T15:27:08.864Z,95040.84
2023-03-24T15:29:39.364Z,95020.06
2023-03-24T15:32:06.697Z,95003.91
2023-03-24T15:34:41.610Z,95007.81
2023-03-24T15:37:55.673Z,94977.81
2023-03-24T15:40:30.426Z,94942.34
2023-03-24T15:42:59.774Z,94915.81
2023-03-24T15:45:29.898Z,94885.38
2023-03-24T15:47:58.642Z,94886.97
2023-03-24T15:50:33.125Z,94864.69
2023-03-24T15:53:08.109Z,94845.34
2023-03-24T15:55:36.922Z,94841.16
2023-03-24T15:58:29.535Z,94834.63
2023-03-24T16:01:01.259Z,94814.59
2023-03-24T16:03:30.598Z,94815.47
2023-03-24T16:05:57.449Z,94818.47
2023-03-24T16:08:41.143Z,94829.69
2023-03-24T16:11:13.093Z,94820.13
2023-03-24T16:13:42.421Z,94807.00
2023-03-24T16:16:16.976Z,94812.41
2023-03-24T16:18:46.023Z,94790.50
2023-03-24T16:21:27.841Z,94755.47
2023-03-24T16:23:56.292Z,94743.81
2023-03-24T16:26:24.390Z,94738.53
2023-03-24T16:28:52.594Z,94742.28
2023-03-24T16:31:34.723Z,94748.47
2023-03-24T16:34:01.426Z,94739.69
2023-03-24T16:36:29.637Z,94720.38
2023-03-24T16:38:59.123Z,94718.13
2023-03-24T16:41:25.913Z,94712.78
2023-03-24T16:43:55.369Z,94693.91
2023-03-24T16:46:34.161Z,94685.69
2023-03-24T16:49:02.590Z,94682.75
2023-03-24T16:51:29.943Z,94699.38
2023-03-24T16:53:56.617Z,94679.81
2023-03-24T16:56:25.505Z,94660.41
2023-03-24T16:58:53.308Z,94647.00
2023-03-24T17:01:33.666Z,94673.28
2023-03-24T17:04:11.242Z,94645.94
2023-03-24T17:06:49.172Z,94644.78
2023-03-24T17:09:16.409Z,94642.94
2023-03-24T17:11:52.056Z,94638.16
2023-03-24T17:14:19.079Z,94638.66
2023-03-24T17:16:48.364Z,94616.25
2023-03-24T17:19:17.792Z,94623.19
2023-03-24T17:21:49.297Z,94639.50
2023-03-24T17:24:16.755Z,94638.31
2023-03-24T17:26:43.672Z,94645.66
2023-03-24T17:29:14.726Z,94650.34
2023-03-24T17:31:43.297Z,94643.28
2023-03-24T17:36:45.226Z,94664.97
2023-03-24T17:39:17.092Z,94668.00
2023-03-24T17:41:43.976Z,94648.78
2023-03-24T17:44:10.936Z,94630.22
2023-03-24T17:46:37.823Z,94630.22
2023-03-24T17:49:06.218Z,94631.91
2023-03-24T17:51:33.986Z,94631.91
2023-03-24T17:54:00.830Z,94659.34
2023-03-24T17:56:27.539Z,94702.13
2023-03-24T17:58:55.069Z,94712.84
2023-03-24T18:01:22.842Z,94769.00
2023-03-24T18:03:52.587Z,94803.56
2023-03-24T18:06:19.201Z,94825.06
2023-03-24T18:08:45.924Z,94846.53
2023-03-24T18:11:15.679Z,94866.47
2023-03-24T18:13:45.085Z,94882.59
2023-03-24T18:16:21.532Z,94922.41
2023-03-24T18:18:49.670Z,94933.91
2023-03-24T18:21:16.684Z,94935.44
2023-03-24T18:23:43.388Z,94951.84
2023-03-24T18:26:10.393Z,94957.97
2023-03-24T18:28:38.939Z,94979.44
2023-03-24T18:31:10.280Z,94991.19
2023-03-24T18:33:36.964Z,94993.88
2023-03-24T18:36:05.577Z,95003.53
2023-03-24T18:38:32.316Z,95012.94
2023-03-24T18:41:06.354Z,95027.53
2023-03-24T18:43:45.071Z,95033.31
2023-03-24T18:46:11.862Z,95048.50
2023-03-24T18:48:42.668Z,95039.38
2023-03-24T18:51:10.969Z,95050.94
2023-03-24T18:53:38.694Z,95063.75
2023-03-24T18:56:07.805Z,95065.66
2023-03-24T18:58:36.590Z,95066.47
2023-03-24T19:01:14.981Z,95087.69
2023-03-24T19:03:44.224Z,95095.72
2023-03-24T19:06:13.495Z,95100.34
2023-03-24T19:08:42.973Z,95115.06
2023-03-24T19:11:11.264Z,95126.09
2023-03-24T19:13:38.597Z,95129.75
2023-03-24T19:16:05.794Z,95133.72
2023-03-24T19:18:32.490Z,95135.94
2023-03-24T19:21:02.066Z,95115.78
2023-03-24T19:23:31.277Z,95131.00
2023-03-24T19:25:58.011Z,95119.34
2023-03-24T19:28:29.182Z,95117.59
2023-03-24T19:30:57.525Z,95124.81
2023-03-24T19:33:24.176Z,95117.34
2023-03-24T19:35:51.582Z,95116.25
2023-03-24T19:38:25.003Z,95109.47
2023-03-24T19:40:53.972Z,95103.53
2023-03-24T19:43:21.957Z,95084.41
2023-03-24T19:45:52.967Z,95085.34
2023-03-24T19:48:19.791Z,95085.56
2023-03-24T19:50:49.294Z,95067.91
2023-03-24T19:53:16.648Z,95049.31
2023-03-24T19:55:43.252Z,95060.69
2023-03-24T19:58:09.893Z,95054.06
2023-03-24T20:00:40.065Z,95042.34
2023-03-24T20:03:07.127Z,95041.16
2023-03-24T20:05:35.506Z,95042.91
2023-03-24T20:08:02.613Z,95020.03
2023-03-24T20:10:29.516Z,95013.56
2023-03-24T20:12:56.799Z,95003.13
2023-03-24T20:15:23.761Z,94988.28
2023-03-24T20:17:50.762Z,94977.19
2023-03-24T20:20:17.604Z,94974.41
2023-03-24T20:22:50.036Z,94958.88
2023-03-24T20:25:19.606Z,94971.00
2023-03-24T20:27:47.583Z,94958.75
2023-03-24T20:30:17.322Z,94964.19
2023-03-24T20:32:44.356Z,94971.75
2023-03-24T20:35:11.796Z,94977.75
2023-03-24T20:37:38.570Z,94980.94
2023-03-24T20:40:06.987Z,94985.44
2023-03-24T20:42:33.661Z,95006.72
2023-03-24T20:45:00.564Z,95007.63
2023-03-24T20:47:28.545Z,95013.00
2023-03-24T20:49:56.647Z,95041.91
2023-03-24T20:52:24.403Z,95042.09
2023-03-24T20:54:51.471Z,95033.25
2023-03-24T20:57:19.282Z,95039.22
2023-03-24T20:59:49.001Z,95031.34
2023-03-24T21:02:17.086Z,95030.63
2023-03-24T21:04:43.736Z,95047.66
2023-03-24T21:07:10.681Z,95056.03
2023-03-24T21:09:37.284Z,95054.34
2023-03-24T21:12:06.542Z,95069.06
2023-03-24T21:14:34.092Z,95081.56
2023-03-24T21:17:01.649Z,95085.53
2023-03-24T21:19:28.759Z,95093.16
2023-03-24T21:21:56.173Z,95112.13
2023-03-24T21:24:24.241Z,95120.69
2023-03-24T21:26:51.490Z,95138.22
2023-03-24T21:29:18.248Z,95137.63
2023-03-24T21:31:44.926Z,95150.31
2023-03-24T21:34:12.806Z,95150.50
2023-03-24T21:36:40.481Z,95176.22
2023-03-24T21:39:10.580Z,95197.22
2023-03-24T21:41:39.004Z,95198.59
2023-03-24T21:44:07.922Z,95226.63
2023-03-24T21:46:35.759Z,95240.22
2023-03-24T21:49:02.854Z,95234.31
2023-03-24T21:51:37.880Z,95260.63
2023-03-24T21:54:06.710Z,95280.22
2023-03-24T21:56:36.580Z,95281.19
2023-03-24T21:59:03.309Z,95302.59
2023-03-24T22:01:31.144Z,95317.97
2023-03-24T22:03:58.982Z,95327.38
2023-03-24T22:06:29.285Z,95336.53
2023-03-24T22:08:58.435Z,95356.88
2023-03-24T22:11:25.962Z,95353.34
2023-03-24T22:13:54.204Z,95378.47
2023-03-24T22:16:21.021Z,95393.56
2023-03-24T22:18:47.779Z,95390.09
2023-03-24T22:21:14.815Z,95408.22
2023-03-24T22:23:42.963Z,95416.50
2023-03-24T22:26:15.829Z,95405.38
2023-03-24T22:28:43.280Z,95430.31
2023-03-24T22:31:13.866Z,95430.31
2023-03-24T22:33:41.231Z,95437.47
2023-03-24T22:36:10.143Z,95462.31
2023-03-24T22:38:36.923Z,95471.53
2023-03-24T22:41:08.229Z,95464.06
2023-03-24T22:43:35.998Z,95489.69
2023-03-24T22:46:03.266Z,95498.13
2023-03-24T22:48:31.333Z,95511.25
2023-03-24T22:50:58.499Z,95523.88
2023-03-24T22:53:25.636Z,95527.13
2023-03-24T22:55:52.746Z,95541.59
2023-03-24T22:58:19.655Z,95554.31
2023-03-24T23:00:48.711Z,95565.25
2023-03-24T23:03:16.262Z,95577.59
2023-03-24T23:05:46.462Z,95600.88
2023-03-24T23:08:15.257Z,95596.66
2023-03-24T23:10:44.753Z,95607.19
2023-03-24T23:13:12.265Z,95629.53
2023-03-24T23:15:47.623Z,95629.19
2023-03-24T23:18:14.949Z,95647.66
2023-03-24T23:20:44.065Z,95656.59
2023-03-24T23:23:10.965Z,95652.03
2023-03-24T23:25:43.354Z,95662.03
2023-03-24T23:28:11.571Z,95674.44
2023-03-24T23:30:38.909Z,95677.56
2023-03-24T23:33:05.813Z,95690.16
2023-03-24T23:35:33.388Z,95699.28
2023-03-24T23:38:02.341Z,95700.34
2023-03-24T23:40:29.039Z,95712.22
2023-03-24T23:42:57.392Z,95727.66
2023-03-24T23:45:23.989Z,95725.34
2023-03-24T23:47:51.821Z,95751.59
2023-03-24T23:50:20.534Z,95758.50
2023-03-24T23:52:48.254Z,95761.44
2023-03-24T23:55:18.813Z,95774.44
2023-03-24T23:57:46.615Z,95776.31
